createdAt,value
2018-03-08T00:01:50.943Z,96103
2018-03-08T00:04:19.104Z,96095
2018-03-08T00:06:47.350Z,96097
2018-03-08T00:09:15.520Z,96094
2018-03-08T00:11:43.720Z,96093
2018-03-08T00:14:11.901Z,96091
2018-03-08T00:16:40.077Z,96093
2018-03-08T00:19:08.274Z,96082
2018-03-08T00:21:36.438Z,96096
2018-03-08T00:24:05.395Z,96105
2018-03-08T00:26:33.603Z,96102
2018-03-08T00:29:01.784Z,96105
2018-03-08T00:31:29.966Z,96114
2018-03-08T00:33:58.136Z,96116
2018-03-08T00:36:26.339Z,96114
2018-03-08T00:38:55.278Z,96113
2018-03-08T00:41:23.450Z,96118
2018-03-08T00:43:51.633Z,96120
2018-03-08T00:46:19.817Z,96121
2018-03-08T00:48:48.013Z,96127
2018-03-08T00:51:16.194Z,96119
2018-03-08T00:53:44.400Z,96120
2018-03-08T00:56:12.588Z,96131
2018-03-08T00:58:40.753Z,96128
2018-03-08T01:01:08.924Z,96126
2018-03-08T01:03:37.105Z,96124
2018-03-08T01:06:05.271Z,96118
2018-03-08T01:08:33.438Z,96119
2018-03-08T01:11:02.377Z,96127
2018-03-08T01:13:30.576Z,96123
2018-03-08T01:15:58.765Z,96127
2018-03-08T01:18:27.690Z,96130
2018-03-08T01:20:55.856Z,96132
2018-03-08T01:23:24.039Z,96136
2018-03-08T01:25:52.205Z,96129
2018-03-08T01:28:20.366Z,96128
2018-03-08T01:30:49.324Z,96133
2018-03-08T01:33:17.518Z,96127
2018-03-08T01:35:46.452Z,96133
2018-03-08T01:38:14.653Z,96132
2018-03-08T01:40:42.828Z,96123
2018-03-08T01:43:10.998Z,96128
2018-03-08T01:45:39.193Z,96129
2018-03-08T01:48:07.382Z,96140
2018-03-08T01:50:35.562Z,96137
2018-03-08T01:53:03.742Z,96136
2018-03-08T01:55:32.679Z,96139
2018-03-08T01:58:00.859Z,96140
2018-03-08T02:00:29.023Z,96139
2018-03-08T02:02:57.202Z,96141
2018-03-08T02:05:25.395Z,96143
2018-03-08T02:07:53.614Z,96153
2018-03-08T02:10:22.574Z,96151
2018-03-08T02:12:50.775Z,96153
2018-03-08T02:15:19.728Z,96159
2018-03-08T02:17:47.923Z,96158
2018-03-08T02:20:16.093Z,96161
2018-03-08T02:22:44.289Z,96162
2018-03-08T02:25:12.461Z,96163
2018-03-08T02:27:40.640Z,96170
2018-03-08T02:30:09.579Z,96177
2018-03-08T02:32:37.783Z,96180
2018-03-08T02:35:06.022Z,96186
2018-03-08T02:37:34.185Z,96184
2018-03-08T02:40:02.363Z,96189
2018-03-08T02:42:30.555Z,96193
2018-03-08T02:44:58.753Z,96194
2018-03-08T02:47:26.950Z,96194
2018-03-08T02:49:55.931Z,96195
2018-03-08T02:52:24.102Z,96200
2018-03-08T02:54:52.272Z,96203
2018-03-08T02:57:20.462Z,96201
2018-03-08T02:59:48.629Z,96204
2018-03-08T03:02:16.790Z,96208
2018-03-08T03:04:44.984Z,96215
2018-03-08T03:07:13.146Z,96216
2018-03-08T03:09:41.327Z,96220
2018-03-08T03:12:09.514Z,96219
2018-03-08T03:14:39.178Z,96213
2018-03-08T03:17:07.376Z,96212
2018-03-08T03:19:35.539Z,96213
2018-03-08T03:22:03.738Z,96216
2018-03-08T03:24:31.897Z,96217
2018-03-08T03:27:00.083Z,96219
2018-03-08T03:29:28.246Z,96227
2018-03-08T03:31:56.414Z,96235
2018-03-08T03:34:25.376Z,96241
2018-03-08T03:36:53.590Z,96241
2018-03-08T03:39:21.751Z,96242
2018-03-08T03:41:49.924Z,96242
2018-03-08T03:44:18.106Z,96254
2018-03-08T03:46:46.278Z,96251
2018-03-08T03:49:14.478Z,96255
2018-03-08T03:51:42.678Z,96257
2018-03-08T03:54:11.662Z,96259
2018-03-08T03:56:40.599Z,96266
2018-03-08T03:59:08.789Z,96265
2018-03-08T04:01:36.986Z,96265
2018-03-08T04:04:05.159Z,96267
2018-03-08T04:06:33.335Z,96270
2018-03-08T04:09:01.507Z,96274
2018-03-08T04:11:29.711Z,96275
2018-03-08T04:13:58.655Z,96279
2018-03-08T04:16:27.617Z,96280
2018-03-08T04:18:55.782Z,96284
2018-03-08T04:21:23.942Z,96278
2018-03-08T04:23:52.899Z,96282
2018-03-08T04:26:21.069Z,96290
2018-03-08T04:28:49.244Z,96299
2018-03-08T04:31:17.415Z,96304
2018-03-08T04:33:45.583Z,96306
2018-03-08T04:36:13.759Z,96312
2018-03-08T04:38:41.945Z,96315
2018-03-08T04:41:10.145Z,96314
2018-03-08T04:43:38.337Z,96312
2018-03-08T04:46:07.267Z,96319
2018-03-08T04:48:35.425Z,96312
2018-03-08T04:51:03.590Z,96316
2018-03-08T04:53:31.747Z,96315
2018-03-08T04:56:00.709Z,96321
2018-03-08T04:58:28.978Z,96323
2018-03-08T05:00:57.174Z,96330
2018-03-08T05:03:25.330Z,96333
2018-03-08T05:05:53.498Z,96330
2018-03-08T05:08:21.677Z,96334
2018-03-08T05:10:49.842Z,96335
2018-03-08T05:13:18.066Z,96343
2018-03-08T05:15:47.020Z,96349
2018-03-08T05:18:15.223Z,96348
2018-03-08T05:20:43.390Z,96352
2018-03-08T05:23:11.561Z,96361
2018-03-08T05:25:39.748Z,96362
2018-03-08T05:28:07.930Z,96374
2018-03-08T05:30:36.891Z,96373
2018-03-08T05:33:05.077Z,96379
2018-03-08T05:35:33.269Z,96390
2018-03-08T05:38:02.215Z,96396
2018-03-08T05:40:30.387Z,96402
2018-03-08T05:42:58.579Z,96410
2018-03-08T05:45:26.746Z,96414
2018-03-08T05:47:54.911Z,96418
2018-03-08T05:50:23.108Z,96425
2018-03-08T05:52:51.282Z,96425
2018-03-08T05:55:19.451Z,96428
2018-03-08T05:57:47.614Z,96432
2018-03-08T06:00:15.813Z,96432
2018-03-08T06:02:44.012Z,96452
2018-03-08T06:05:12.953Z,96449
2018-03-08T06:07:41.180Z,96448
2018-03-08T06:10:10.187Z,96453
2018-03-08T06:12:38.358Z,96454
2018-03-08T06:15:07.303Z,96459
2018-03-08T06:17:35.469Z,96460
2018-03-08T06:20:03.662Z,96470
2018-03-08T06:22:31.844Z,96476
2018-03-08T06:25:00.024Z,96487
2018-03-08T06:27:28.196Z,96490
2018-03-08T06:29:56.654Z,96489
2018-03-08T06:32:24.991Z,96492
2018-03-08T06:34:53.179Z,96495
2018-03-08T06:37:21.363Z,96498
2018-03-08T06:39:49.560Z,96506
2018-03-08T06:42:17.735Z,96505
2018-03-08T06:44:45.980Z,96508
2018-03-08T06:47:14.148Z,96521
2018-03-08T06:49:42.332Z,96518
2018-03-08T06:52:10.525Z,96520
2018-03-08T06:54:38.699Z,96524
2018-03-08T06:57:06.892Z,96527
2018-03-08T06:59:35.106Z,96527
2018-03-08T07:02:04.060Z,96524
2018-03-08T07:04:32.247Z,96528
2018-03-08T07:07:00.481Z,96533
2018-03-08T07:09:28.641Z,96537
2018-03-08T07:11:56.806Z,96541
2018-03-08T07:14:25.031Z,96551
2018-03-08T07:16:53.214Z,96550
2018-03-08T07:19:21.390Z,96550
2018-03-08T07:21:49.608Z,96552
2018-03-08T07:24:17.820Z,96557
2018-03-08T07:26:46.022Z,96554
2018-03-08T07:29:14.246Z,96556
2018-03-08T07:31:42.421Z,96554
2018-03-08T07:34:10.620Z,96567
2018-03-08T07:36:38.799Z,96564
2018-03-08T07:39:06.983Z,96565
2018-03-08T07:41:35.208Z,96572
2018-03-08T07:44:03.379Z,96583
2018-03-08T07:46:31.553Z,96577
2018-03-08T07:48:59.757Z,96579
2018-03-08T07:51:27.942Z,96581
2018-03-08T07:53:56.103Z,96591
2018-03-08T07:56:24.325Z,96591
2018-03-08T07:58:52.545Z,96598
2018-03-08T08:01:20.726Z,96596
2018-03-08T08:03:48.934Z,96590
2018-03-08T08:06:35.113Z,96596
2018-03-08T08:09:10.316Z,96596
2018-03-08T08:11:38.489Z,96599
2018-03-08T08:14:06.690Z,96599
2018-03-08T08:16:34.854Z,96597
2018-03-08T08:19:03.067Z,96595
2018-03-08T08:21:31.238Z,96596
2018-03-08T08:23:59.448Z,96596
2018-03-08T08:26:27.640Z,96602
2018-03-08T08:28:55.834Z,96604
2018-03-08T08:31:24.095Z,96605
2018-03-08T08:33:53.955Z,96606
2018-03-08T08:36:22.151Z,96609
2018-03-08T08:38:50.349Z,96611
2018-03-08T08:41:19.277Z,96609
2018-03-08T08:43:47.434Z,96610
2018-03-08T08:46:15.609Z,96605
2018-03-08T08:48:43.779Z,96609
2018-03-08T08:51:11.988Z,96608
2018-03-08T08:53:40.171Z,96615
2018-03-08T08:56:08.351Z,96617
2018-03-08T08:58:36.555Z,96623
2018-03-08T09:01:05.499Z,96623
2018-03-08T09:03:33.682Z,96625
2018-03-08T09:06:01.855Z,96627
2018-03-08T09:08:30.032Z,96627
2018-03-08T09:10:58.223Z,96624
2018-03-08T09:13:26.388Z,96629
2018-03-08T09:15:55.339Z,96626
2018-03-08T09:18:23.545Z,96630
2018-03-08T09:20:51.710Z,96636
2018-03-08T09:23:19.877Z,96636
2018-03-08T09:25:48.063Z,96639
2018-03-08T09:28:16.225Z,96628
2018-03-08T09:30:44.462Z,96626
2018-03-08T09:33:13.407Z,96627
2018-03-08T09:35:41.619Z,96632
2018-03-08T09:38:09.861Z,96630
2018-03-08T09:40:38.019Z,96626
2018-03-08T09:43:06.227Z,96628
2018-03-08T09:45:34.409Z,96632
2018-03-08T09:48:02.594Z,96623
2018-03-08T09:50:30.775Z,96621
2018-03-08T09:52:59.723Z,96622
2018-03-08T09:55:27.926Z,96620
2018-03-08T09:57:56.099Z,96629
2018-03-08T10:00:24.266Z,96622
2018-03-08T10:02:52.455Z,96615
2018-03-08T10:05:20.627Z,96615
2018-03-08T10:07:48.811Z,96616
2018-03-08T10:10:17.778Z,96612
2018-03-08T10:12:45.958Z,96611
2018-03-08T10:15:14.129Z,96614
2018-03-08T10:17:42.355Z,96610
2018-03-08T10:20:11.306Z,96620
2018-03-08T10:22:39.479Z,96616
2018-03-08T10:25:07.657Z,96621
2018-03-08T10:27:35.861Z,96615
2018-03-08T10:30:04.800Z,96621
2018-03-08T10:32:32.987Z,96612
2018-03-08T10:35:01.186Z,96623
2018-03-08T10:37:30.867Z,96629
2018-03-08T10:39:59.025Z,96626
2018-03-08T10:44:55.417Z,96635
2018-03-08T10:47:23.594Z,96636
2018-03-08T10:49:51.762Z,96637
2018-03-08T10:52:21.436Z,96643
2018-03-08T10:54:49.638Z,96638
2018-03-08T10:57:17.816Z,96645
2018-03-08T10:59:45.990Z,96642
2018-03-08T11:02:17.250Z,96639
2018-03-08T11:04:51.065Z,96644
2018-03-08T11:07:20.006Z,96642
2018-03-08T11:09:48.188Z,96643
2018-03-08T11:12:16.365Z,96644
2018-03-08T11:14:44.568Z,96645
2018-03-08T11:17:12.737Z,96651
2018-03-08T11:19:40.906Z,96647
2018-03-08T11:22:09.071Z,96641
2018-03-08T11:24:37.267Z,96645
2018-03-08T11:27:06.217Z,96638
2018-03-08T11:29:34.382Z,96634
2018-03-08T11:32:02.563Z,96633
2018-03-08T11:34:30.750Z,96634
2018-03-08T11:36:58.924Z,96641
2018-03-08T11:39:27.194Z,96637
2018-03-08T11:41:55.379Z,96636
2018-03-08T11:44:23.569Z,96643
2018-03-08T11:46:51.736Z,96643
2018-03-08T11:49:21.070Z,96639
2018-03-08T11:51:48.150Z,96648
2018-03-08T11:54:16.350Z,96646
2018-03-08T11:56:44.523Z,96654
2018-03-08T11:59:12.730Z,96658
2018-03-08T12:01:40.928Z,96657
2018-03-08T12:04:09.865Z,96657
2018-03-08T12:06:38.038Z,96658
2018-03-08T12:09:06.206Z,96648
2018-03-08T12:11:34.379Z,96651
2018-03-08T12:14:02.571Z,96647
2018-03-08T12:16:30.734Z,96656
2018-03-08T12:18:58.924Z,96664
2018-03-08T12:21:27.103Z,96668
2018-03-08T12:23:55.275Z,96667
2018-03-08T12:26:23.439Z,96676
2018-03-08T12:28:54.264Z,96674
2018-03-08T12:31:22.436Z,96676
2018-03-08T12:33:50.611Z,96671
2018-03-08T12:36:18.916Z,96676
2018-03-08T12:38:47.097Z,96675
2018-03-08T12:41:15.320Z,96671
2018-03-08T12:43:43.672Z,96668
2018-03-08T12:46:12.659Z,96662
2018-03-08T12:48:40.861Z,96663
2018-03-08T12:51:09.028Z,96659
2018-03-08T12:53:37.203Z,96652
2018-03-08T12:56:06.165Z,96653
2018-03-08T12:58:34.362Z,96653
2018-03-08T13:01:03.439Z,96653
2018-03-08T13:03:31.738Z,96651
2018-03-08T13:06:00.678Z,96647
2018-03-08T13:08:29.034Z,96645
2018-03-08T13:10:57.194Z,96633
2018-03-08T13:13:25.379Z,96624
2018-03-08T13:15:53.551Z,96628
2018-03-08T13:18:21.723Z,96622
2018-03-08T13:20:49.919Z,96623
2018-03-08T13:23:18.113Z,96623
2018-03-08T13:25:46.335Z,96619
2018-03-08T13:28:14.494Z,96629
2018-03-08T13:30:42.695Z,96625
2018-03-08T13:33:10.894Z,96621
2018-03-08T13:35:39.072Z,96625
2018-03-08T13:38:07.292Z,96633
2018-03-08T13:40:36.239Z,96638
2018-03-08T13:43:04.442Z,96638
2018-03-08T13:45:32.608Z,96637
2018-03-08T13:48:00.774Z,96630
2018-03-08T13:50:28.943Z,96631
2018-03-08T13:52:57.115Z,96632
2018-03-08T13:55:25.310Z,96635
2018-03-08T13:57:53.523Z,96641
2018-03-08T14:00:22.487Z,96648
2018-03-08T14:02:51.414Z,96651
2018-03-08T14:05:20.347Z,96655
2018-03-08T14:07:48.558Z,96651
2018-03-08T14:10:16.746Z,96661
2018-03-08T14:12:45.698Z,96656
2018-03-08T14:15:13.891Z,96658
2018-03-08T14:17:42.091Z,96649
2018-03-08T14:20:11.081Z,96650
2018-03-08T14:22:39.219Z,96654
2018-03-08T14:25:07.387Z,96651
2018-03-08T14:27:35.570Z,96644
2018-03-08T14:30:03.744Z,96653
2018-03-08T14:32:31.908Z,96650
2018-03-08T14:35:00.096Z,96651
2018-03-08T14:37:28.271Z,96656
2018-03-08T14:39:56.451Z,96655
2018-03-08T14:42:24.626Z,96654
2018-03-08T14:44:53.584Z,96657
2018-03-08T14:47:21.762Z,96651
2018-03-08T14:49:49.930Z,96653
2018-03-08T14:52:18.113Z,96650
2018-03-08T14:54:46.279Z,96654
2018-03-08T14:57:14.462Z,96654
2018-03-08T14:59:42.640Z,96648
2018-03-08T15:02:10.802Z,96651
2018-03-08T15:04:39.005Z,96653
2018-03-08T15:07:07.186Z,96662
2018-03-08T15:09:40.058Z,96664
2018-03-08T15:12:11.221Z,96661
2018-03-08T15:14:40.387Z,96662
2018-03-08T15:17:08.588Z,96649
2018-03-08T15:19:36.763Z,96667
2018-03-08T15:22:05.715Z,96661
2018-03-08T15:24:36.647Z,96661
2018-03-08T15:27:05.045Z,96656
2018-03-08T15:29:33.236Z,96658
2018-03-08T15:32:01.430Z,96664
2018-03-08T15:34:29.876Z,96668
2018-03-08T15:36:59.329Z,96668
2018-03-08T15:39:29.673Z,96664
2018-03-08T15:41:58.643Z,96665
2018-03-08T15:44:26.826Z,96658
2018-03-08T15:47:00.239Z,96660
2018-03-08T15:49:30.091Z,96654
2018-03-08T15:51:58.272Z,96651
2018-03-08T15:54:27.149Z,96647
2018-03-08T15:57:00.138Z,96656
2018-03-08T15:59:28.314Z,96647
2018-03-08T16:01:57.819Z,96649
2018-03-08T16:04:26.008Z,96655
2018-03-08T16:10:36.497Z,96653
2018-03-08T16:13:04.826Z,96658
2018-03-08T16:15:33.786Z,96668
2018-03-08T16:18:01.954Z,96665
2018-03-08T16:20:30.135Z,96664
2018-03-08T16:22:58.311Z,96668
2018-03-08T16:25:26.507Z,96669
2018-03-08T16:27:55.451Z,96668
2018-03-08T16:30:23.795Z,96672
2018-03-08T16:32:56.061Z,96676
2018-03-08T16:35:24.446Z,96676
2018-03-08T16:37:52.636Z,96680
2018-03-08T16:40:20.812Z,96678
2018-03-08T16:42:49.809Z,96682
2018-03-08T16:45:21.480Z,96683
2018-03-08T16:47:49.739Z,96686
2018-03-08T16:50:17.935Z,96682
2018-03-08T16:52:50.956Z,96683
2018-03-08T16:55:19.383Z,96679
2018-03-08T16:57:47.607Z,96680
2018-03-08T17:00:15.823Z,96683
2018-03-08T17:02:47.698Z,96683
2018-03-08T17:05:16.929Z,96687
2018-03-08T17:07:45.134Z,96683
2018-03-08T17:10:14.109Z,96686
2018-03-08T17:12:42.308Z,96688
2018-03-08T17:15:11.242Z,96694
2018-03-08T17:17:39.433Z,96697
2018-03-08T17:20:07.618Z,96698
2018-03-08T17:22:35.800Z,96699
2018-03-08T17:25:04.008Z,96702
2018-03-08T17:27:32.227Z,96705
2018-03-08T17:30:00.475Z,96713
2018-03-08T17:32:28.637Z,96712
2018-03-08T17:34:56.825Z,96712
2018-03-08T17:37:25.028Z,96720
2018-03-08T17:39:53.202Z,96726
2018-03-08T17:42:21.426Z,96730
2018-03-08T17:44:49.647Z,96731
2018-03-08T17:47:17.850Z,96728
2018-03-08T17:49:46.043Z,96727
2018-03-08T17:52:19.190Z,96729
2018-03-08T17:54:48.539Z,96732
2018-03-08T17:57:17.493Z,96736
2018-03-08T17:59:45.836Z,96733
2018-03-08T18:02:14.841Z,96738
2018-03-08T18:04:43.436Z,96738
2018-03-08T18:07:15.697Z,96738
2018-03-08T18:09:44.190Z,96745
2018-03-08T18:12:12.379Z,96751
2018-03-08T18:14:40.569Z,96753
2018-03-08T18:17:09.772Z,96753
2018-03-08T18:19:37.988Z,96757
2018-03-08T18:22:06.158Z,96754
2018-03-08T18:24:34.349Z,96758
2018-03-08T18:27:02.514Z,96757
2018-03-08T18:29:30.708Z,96757
2018-03-08T18:31:58.882Z,96764
2018-03-08T18:34:27.150Z,96772
2018-03-08T18:36:55.324Z,96766
2018-03-08T18:39:23.512Z,96767
2018-03-08T18:41:51.716Z,96767
2018-03-08T18:44:19.896Z,96772
2018-03-08T18:46:48.127Z,96768
2018-03-08T18:49:16.306Z,96763
2018-03-08T18:51:44.484Z,96764
2018-03-08T18:54:12.698Z,96768
2018-03-08T18:56:41.653Z,96770
2018-03-08T18:59:09.828Z,96774
2018-03-08T19:01:37.994Z,96776
2018-03-08T19:04:06.183Z,96771
2018-03-08T19:06:34.372Z,96768
2018-03-08T19:09:02.571Z,96769
2018-03-08T19:11:31.560Z,96773
2018-03-08T19:14:00.513Z,96774
2018-03-08T19:16:28.693Z,96774
2018-03-08T19:18:56.881Z,96772
2018-03-08T19:21:25.083Z,96778
2018-03-08T19:23:54.046Z,96778
2018-03-08T19:26:22.255Z,96781
2018-03-08T19:28:51.217Z,96778
2018-03-08T19:31:19.416Z,96775
2018-03-08T19:33:48.383Z,96779
2018-03-08T19:36:16.697Z,96783
2018-03-08T19:38:44.894Z,96782
2018-03-08T19:41:13.093Z,96779
2018-03-08T19:43:41.301Z,96778
2018-03-08T19:46:09.488Z,96782
2018-03-08T19:48:38.524Z,96783
2018-03-08T19:51:06.719Z,96783
2018-03-08T19:53:34.904Z,96781
2018-03-08T19:56:03.089Z,96788
2018-03-08T19:58:31.299Z,96795
2018-03-08T20:00:59.471Z,96798
2018-03-08T20:03:27.662Z,96801
2018-03-08T20:05:55.843Z,96801
2018-03-08T20:08:24.013Z,96804
2018-03-08T20:10:52.197Z,96801
2018-03-08T20:13:20.379Z,96798
2018-03-08T20:15:48.555Z,96800
2018-03-08T20:18:16.731Z,96797
2018-03-08T20:20:44.923Z,96807
2018-03-08T20:23:13.133Z,96800
2018-03-08T20:25:42.063Z,96802
2018-03-08T20:28:10.249Z,96795
2018-03-08T20:30:38.464Z,96793
2018-03-08T20:33:07.411Z,96798
2018-03-08T20:35:35.598Z,96795
2018-03-08T20:38:03.784Z,96799
2018-03-08T20:40:32.035Z,96800
2018-03-08T20:43:00.211Z,96792
2018-03-08T20:45:28.410Z,96794
2018-03-08T20:47:56.603Z,96796
2018-03-08T20:50:25.562Z,96797
2018-03-08T20:52:53.736Z,96797
2018-03-08T20:55:22.000Z,96797
2018-03-08T20:57:50.206Z,96800
2018-03-08T21:00:18.386Z,96804
2018-03-08T21:02:46.590Z,96800
2018-03-08T21:05:15.620Z,96796
2018-03-08T21:07:43.812Z,96804
2018-03-08T21:10:11.988Z,96803
2018-03-08T21:12:40.190Z,96811
2018-03-08T21:15:09.125Z,96810
2018-03-08T21:17:37.358Z,96796
2018-03-08T21:20:07.099Z,96810
2018-03-08T21:22:35.281Z,96811
2018-03-08T21:25:03.477Z,96814
2018-03-08T21:27:31.671Z,96809
2018-03-08T21:29:59.850Z,96810
2018-03-08T21:32:28.825Z,96811
2018-03-08T21:34:57.044Z,96811
2018-03-08T21:37:25.999Z,96812
2018-03-08T21:39:54.172Z,96812
2018-03-08T21:42:22.367Z,96810
2018-03-08T21:44:50.570Z,96810
2018-03-08T21:47:19.513Z,96806
2018-03-08T21:49:47.721Z,96809
2018-03-08T21:52:15.912Z,96814
2018-03-08T21:54:44.877Z,96813
2018-03-08T21:57:13.061Z,96810
2018-03-08T21:59:41.245Z,96808
2018-03-08T22:02:10.208Z,96806
2018-03-08T22:04:39.162Z,96795
2018-03-08T22:07:07.357Z,96779
2018-03-08T22:09:35.564Z,96794
2018-03-08T22:12:03.748Z,96796
2018-03-08T22:14:32.708Z,96794
2018-03-08T22:17:00.898Z,96790
2018-03-08T22:19:29.079Z,96793
2018-03-08T22:21:57.274Z,96792
2018-03-08T22:24:26.305Z,96793
2018-03-08T22:26:54.517Z,96789
2018-03-08T22:29:22.688Z,96797
2018-03-08T22:31:50.886Z,96795
2018-03-08T22:34:19.058Z,96799
2018-03-08T22:36:47.217Z,96798
2018-03-08T22:39:15.410Z,96788
2018-03-08T22:41:43.590Z,96790
2018-03-08T22:44:12.545Z,96784
2018-03-08T22:46:40.763Z,96790
2018-03-08T22:49:09.730Z,96787
2018-03-08T22:51:37.914Z,96783
2018-03-08T22:54:06.087Z,96788
2018-03-08T22:56:34.259Z,96793
2018-03-08T22:59:02.446Z,96791
2018-03-08T23:04:51.005Z,96792
2018-03-08T23:07:19.244Z,96787
2018-03-08T23:09:47.423Z,96789
2018-03-08T23:12:15.622Z,96792
2018-03-08T23:14:43.818Z,96793
2018-03-08T23:17:11.984Z,96793
2018-03-08T23:19:41.667Z,96791
2018-03-08T23:22:09.864Z,96794
2018-03-08T23:24:38.063Z,96801
2018-03-08T23:27:06.992Z,96801
2018-03-08T23:29:35.167Z,96808
2018-03-08T23:32:03.347Z,96804
2018-03-08T23:34:31.507Z,96809
2018-03-08T23:36:59.677Z,96805
2018-03-08T23:39:27.871Z,96806
2018-03-08T23:41:56.060Z,96812
2018-03-08T23:44:24.269Z,96814
2018-03-08T23:46:52.436Z,96815
2018-03-08T23:49:20.623Z,96819
2018-03-08T23:51:49.571Z,96819
2018-03-08T23:54:17.843Z,96818
2018-03-08T23:56:46.036Z,96818
2018-03-08T23:59:14.210Z,96821
